sensor_id;sensor_type;location;lat;lon;timestamp;P1;durP1;ratioP1;P2;durP2;ratioP2
84997;SDS011;75314;48.120;11.534;2024-03-02T00:01:47;8.90;;;7.23;;
84997;SDS011;75314;48.120;11.534;2024-03-02T00:04:12;8.77;;;7.40;;
84997;SDS011;75314;48.120;11.534;2024-03-02T00:06:37;8.63;;;7.40;;
84997;SDS011;75314;48.120;11.534;2024-03-02T00:09:02;8.50;;;7.40;;
84997;SDS011;75314;48.120;11.534;2024-03-02T00:11:28;8.23;;;7.27;;
84997;SDS011;75314;48.120;11.534;2024-03-02T00:13:53;9.07;;;8.10;;
84997;SDS011;75314;48.120;11.534;2024-03-02T00:16:18;8.50;;;7.60;;
84997;SDS011;75314;48.120;11.534;2024-03-02T00:18:43;7.97;;;7.10;;
84997;SDS011;75314;48.120;11.534;2024-03-02T00:21:09;8.80;;;7.47;;
84997;SDS011;75314;48.120;11.534;2024-03-02T00:23:34;8.00;;;7.20;;
84997;SDS011;75314;48.120;11.534;2024-03-02T00:25:59;8.50;;;7.60;;
84997;SDS011;75314;48.120;11.534;2024-03-02T00:28:34;10.50;;;7.83;;
84997;SDS011;75314;48.120;11.534;2024-03-02T00:31:03;8.80;;;7.90;;
84997;SDS011;75314;48.120;11.534;2024-03-02T00:33:33;8.37;;;7.17;;
84997;SDS011;75314;48.120;11.534;2024-03-02T00:36:09;8.27;;;7.43;;
84997;SDS011;75314;48.120;11.534;2024-03-02T00:38:42;9.23;;;7.97;;
84997;SDS011;75314;48.120;11.534;2024-03-02T00:41:07;10.00;;;8.57;;
84997;SDS011;75314;48.120;11.534;2024-03-02T00:43:51;8.97;;;7.83;;
84997;SDS011;75314;48.120;11.534;2024-03-02T00:46:22;8.37;;;7.53;;
84997;SDS011;75314;48.120;11.534;2024-03-02T00:48:57;8.40;;;7.60;;
84997;SDS011;75314;48.120;11.534;2024-03-02T00:51:24;8.73;;;7.33;;
84997;SDS011;75314;48.120;11.534;2024-03-02T00:53:51;8.20;;;7.40;;
84997;SDS011;75314;48.120;11.534;2024-03-02T00:56:17;8.40;;;7.10;;
84997;SDS011;75314;48.120;11.534;2024-03-02T00:58:42;9.20;;;8.00;;
84997;SDS011;75314;48.120;11.534;2024-03-02T01:01:07;8.03;;;7.20;;
84997;SDS011;75314;48.120;11.534;2024-03-02T01:03:33;9.57;;;7.87;;
84997;SDS011;75314;48.120;11.534;2024-03-02T01:05:58;8.43;;;7.43;;
84997;SDS011;75314;48.120;11.534;2024-03-02T01:08:24;9.03;;;8.03;;
84997;SDS011;75314;48.120;11.534;2024-03-02T01:10:49;8.33;;;7.50;;
84997;SDS011;75314;48.120;11.534;2024-03-02T01:13:14;8.70;;;7.80;;
84997;SDS011;75314;48.120;11.534;2024-03-02T01:15:40;8.60;;;7.70;;
84997;SDS011;75314;48.120;11.534;2024-03-02T01:18:05;8.20;;;7.40;;
84997;SDS011;75314;48.120;11.534;2024-03-02T01:20:30;8.10;;;7.20;;
84997;SDS011;75314;48.120;11.534;2024-03-02T01:22:55;9.00;;;7.63;;
84997;SDS011;75314;48.120;11.534;2024-03-02T01:25:20;8.27;;;7.47;;
84997;SDS011;75314;48.120;11.534;2024-03-02T01:27:46;9.33;;;7.63;;
84997;SDS011;75314;48.120;11.534;2024-03-02T01:30:11;10.53;;;8.23;;
84997;SDS011;75314;48.120;11.534;2024-03-02T01:32:37;9.17;;;7.80;;
84997;SDS011;75314;48.120;11.534;2024-03-02T01:35:03;9.17;;;8.10;;
84997;SDS011;75314;48.120;11.534;2024-03-02T01:37:28;8.43;;;7.53;;
84997;SDS011;75314;48.120;11.534;2024-03-02T01:39:54;9.37;;;8.23;;
84997;SDS011;75314;48.120;11.534;2024-03-02T01:42:19;8.47;;;7.57;;
84997;SDS011;75314;48.120;11.534;2024-03-02T01:44:44;8.80;;;7.73;;
84997;SDS011;75314;48.120;11.534;2024-03-02T01:47:09;8.60;;;7.70;;
84997;SDS011;75314;48.120;11.534;2024-03-02T01:49:34;9.80;;;7.53;;
84997;SDS011;75314;48.120;11.534;2024-03-02T01:52:00;8.33;;;7.43;;
84997;SDS011;75314;48.120;11.534;2024-03-02T01:54:25;8.27;;;7.40;;
84997;SDS011;75314;48.120;11.534;2024-03-02T01:56:50;8.30;;;7.40;;
84997;SDS011;75314;48.120;11.534;2024-03-02T01:59:15;7.87;;;7.07;;
84997;SDS011;75314;48.120;11.534;2024-03-02T02:01:41;8.37;;;7.57;;
84997;SDS011;75314;48.120;11.534;2024-03-02T02:04:06;8.10;;;7.30;;
84997;SDS011;75314;48.120;11.534;2024-03-02T02:06:31;7.37;;;6.67;;
84997;SDS011;75314;48.120;11.534;2024-03-02T02:08:57;8.07;;;7.27;;
84997;SDS011;75314;48.120;11.534;2024-03-02T02:11:22;7.83;;;7.03;;
84997;SDS011;75314;48.120;11.534;2024-03-02T02:13:47;7.57;;;6.83;;
84997;SDS011;75314;48.120;11.534;2024-03-02T02:16:13;8.10;;;7.10;;
84997;SDS011;75314;48.120;11.534;2024-03-02T02:18:38;9.07;;;7.60;;
84997;SDS011;75314;48.120;11.534;2024-03-02T02:21:03;8.17;;;7.37;;
84997;SDS011;75314;48.120;11.534;2024-03-02T02:23:28;7.70;;;6.90;;
84997;SDS011;75314;48.120;11.534;2024-03-02T02:25:53;8.07;;;7.20;;
84997;SDS011;75314;48.120;11.534;2024-03-02T02:28:19;8.37;;;6.93;;
84997;SDS011;75314;48.120;11.534;2024-03-02T02:30:44;7.17;;;6.47;;
84997;SDS011;75314;48.120;11.534;2024-03-02T02:33:09;7.67;;;6.87;;
84997;SDS011;75314;48.120;11.534;2024-03-02T02:35:34;7.30;;;6.50;;
84997;SDS011;75314;48.120;11.534;2024-03-02T02:38:00;7.77;;;6.70;;
84997;SDS011;75314;48.120;11.534;2024-03-02T02:40:25;9.93;;;7.50;;
84997;SDS011;75314;48.120;11.534;2024-03-02T02:42:50;7.40;;;6.70;;
84997;SDS011;75314;48.120;11.534;2024-03-02T02:45:15;8.07;;;6.97;;
84997;SDS011;75314;48.120;11.534;2024-03-02T02:47:41;9.70;;;7.43;;
84997;SDS011;75314;48.120;11.534;2024-03-02T02:50:07;8.77;;;7.87;;
84997;SDS011;75314;48.120;11.534;2024-03-02T02:52:33;8.97;;;7.70;;
84997;SDS011;75314;48.120;11.534;2024-03-02T02:54:59;9.03;;;7.50;;
84997;SDS011;75314;48.120;11.534;2024-03-02T02:57:24;8.07;;;7.17;;
84997;SDS011;75314;48.120;11.534;2024-03-02T02:59:49;8.00;;;7.20;;
84997;SDS011;75314;48.120;11.534;2024-03-02T03:02:14;9.97;;;7.33;;
84997;SDS011;75314;48.120;11.534;2024-03-02T03:04:40;8.37;;;7.50;;
84997;SDS011;75314;48.120;11.534;2024-03-02T03:07:05;8.67;;;7.47;;
84997;SDS011;75314;48.120;11.534;2024-03-02T03:09:30;9.57;;;8.00;;
84997;SDS011;75314;48.120;11.534;2024-03-02T03:11:55;9.20;;;7.90;;
84997;SDS011;75314;48.120;11.534;2024-03-02T03:14:21;10.00;;;8.23;;
84997;SDS011;75314;48.120;11.534;2024-03-02T03:16:46;8.80;;;7.83;;
84997;SDS011;75314;48.120;11.534;2024-03-02T03:19:11;9.83;;;7.70;;
84997;SDS011;75314;48.120;11.534;2024-03-02T03:21:36;9.10;;;8.10;;
84997;SDS011;75314;48.120;11.534;2024-03-02T03:24:01;10.57;;;8.60;;
84997;SDS011;75314;48.120;11.534;2024-03-02T03:26:27;9.20;;;8.20;;
84997;SDS011;75314;48.120;11.534;2024-03-02T03:28:52;9.03;;;8.00;;
84997;SDS011;75314;48.120;11.534;2024-03-02T03:31:17;11.40;;;9.07;;
84997;SDS011;75314;48.120;11.534;2024-03-02T03:33:42;9.97;;;8.70;;
84997;SDS011;75314;48.120;11.534;2024-03-02T03:36:07;12.03;;;9.43;;
84997;SDS011;75314;48.120;11.534;2024-03-02T03:38:33;10.60;;;8.80;;
84997;SDS011;75314;48.120;11.534;2024-03-02T03:40:58;10.77;;;9.03;;
84997;SDS011;75314;48.120;11.534;2024-03-02T03:43:23;10.13;;;9.00;;
84997;SDS011;75314;48.120;11.534;2024-03-02T03:45:48;10.60;;;8.63;;
84997;SDS011;75314;48.120;11.534;2024-03-02T03:48:13;10.13;;;9.03;;
84997;SDS011;75314;48.120;11.534;2024-03-02T03:50:39;10.53;;;8.90;;
84997;SDS011;75314;48.120;11.534;2024-03-02T03:53:04;9.73;;;8.73;;
84997;SDS011;75314;48.120;11.534;2024-03-02T03:55:29;10.63;;;9.53;;
84997;SDS011;75314;48.120;11.534;2024-03-02T03:57:54;10.57;;;9.30;;
84997;SDS011;75314;48.120;11.534;2024-03-02T04:00:19;11.10;;;9.90;;
84997;SDS011;75314;48.120;11.534;2024-03-02T04:02:45;10.00;;;8.83;;
84997;SDS011;75314;48.120;11.534;2024-03-02T04:05:10;10.00;;;8.80;;
84997;SDS011;75314;48.120;11.534;2024-03-02T04:07:36;11.07;;;9.70;;
84997;SDS011;75314;48.120;11.534;2024-03-02T04:10:01;11.37;;;9.77;;
84997;SDS011;75314;48.120;11.534;2024-03-02T04:12:27;11.07;;;9.87;;
84997;SDS011;75314;48.120;11.534;2024-03-02T04:14:52;11.10;;;9.67;;
84997;SDS011;75314;48.120;11.534;2024-03-02T04:17:17;10.63;;;8.80;;
84997;SDS011;75314;48.120;11.534;2024-03-02T04:19:42;9.90;;;8.90;;
84997;SDS011;75314;48.120;11.534;2024-03-02T04:22:08;10.47;;;9.37;;
84997;SDS011;75314;48.120;11.534;2024-03-02T04:24:33;10.47;;;9.40;;
84997;SDS011;75314;48.120;11.534;2024-03-02T04:26:58;11.40;;;10.20;;
84997;SDS011;75314;48.120;11.534;2024-03-02T04:29:23;14.47;;;10.17;;
84997;SDS011;75314;48.120;11.534;2024-03-02T04:31:48;18.03;;;9.47;;
84997;SDS011;75314;48.120;11.534;2024-03-02T04:34:13;9.87;;;8.87;;
84997;SDS011;75314;48.120;11.534;2024-03-02T04:36:39;10.57;;;9.07;;
84997;SDS011;75314;48.120;11.534;2024-03-02T04:39:04;10.60;;;9.23;;
84997;SDS011;75314;48.120;11.534;2024-03-02T04:41:29;10.87;;;8.87;;
84997;SDS011;75314;48.120;11.534;2024-03-02T04:43:54;11.17;;;8.83;;
84997;SDS011;75314;48.120;11.534;2024-03-02T04:46:19;10.37;;;9.30;;
84997;SDS011;75314;48.120;11.534;2024-03-02T04:48:45;10.63;;;9.60;;
84997;SDS011;75314;48.120;11.534;2024-03-02T04:51:10;10.77;;;9.57;;
84997;SDS011;75314;48.120;11.534;2024-03-02T04:53:35;11.13;;;9.83;;
84997;SDS011;75314;48.120;11.534;2024-03-02T04:56:00;10.53;;;9.43;;
84997;SDS011;75314;48.120;11.534;2024-03-02T04:58:25;10.87;;;9.77;;
84997;SDS011;75314;48.120;11.534;2024-03-02T05:00:50;10.00;;;9.00;;
84997;SDS011;75314;48.120;11.534;2024-03-02T05:03:16;11.00;;;9.83;;
84997;SDS011;75314;48.120;11.534;2024-03-02T05:05:41;12.10;;;10.20;;
84997;SDS011;75314;48.120;11.534;2024-03-02T05:08:06;10.00;;;8.93;;
84997;SDS011;75314;48.120;11.534;2024-03-02T05:10:31;10.77;;;9.63;;
84997;SDS011;75314;48.120;11.534;2024-03-02T05:12:56;11.27;;;10.07;;
84997;SDS011;75314;48.120;11.534;2024-03-02T05:15:22;11.53;;;10.00;;
84997;SDS011;75314;48.120;11.534;2024-03-02T05:17:47;11.60;;;9.97;;
84997;SDS011;75314;48.120;11.534;2024-03-02T05:20:12;11.70;;;10.50;;
84997;SDS011;75314;48.120;11.534;2024-03-02T05:22:37;12.53;;;10.50;;
84997;SDS011;75314;48.120;11.534;2024-03-02T05:25:03;13.53;;;10.17;;
84997;SDS011;75314;48.120;11.534;2024-03-02T05:27:29;11.40;;;10.20;;
84997;SDS011;75314;48.120;11.534;2024-03-02T05:29:54;11.87;;;10.50;;
84997;SDS011;75314;48.120;11.534;2024-03-02T05:32:20;11.97;;;10.50;;
84997;SDS011;75314;48.120;11.534;2024-03-02T05:34:45;11.80;;;10.27;;
84997;SDS011;75314;48.120;11.534;2024-03-02T05:37:10;11.83;;;10.60;;
84997;SDS011;75314;48.120;11.534;2024-03-02T05:39:35;12.07;;;10.50;;
84997;SDS011;75314;48.120;11.534;2024-03-02T05:42:00;11.80;;;10.43;;
84997;SDS011;75314;48.120;11.534;2024-03-02T05:44:26;11.63;;;10.43;;
84997;SDS011;75314;48.120;11.534;2024-03-02T05:46:51;15.63;;;10.60;;
84997;SDS011;75314;48.120;11.534;2024-03-02T05:49:16;12.43;;;11.13;;
84997;SDS011;75314;48.120;11.534;2024-03-02T05:51:41;14.17;;;11.13;;
84997;SDS011;75314;48.120;11.534;2024-03-02T05:54:06;15.63;;;11.80;;
84997;SDS011;75314;48.120;11.534;2024-03-02T05:56:32;12.93;;;11.23;;
84997;SDS011;75314;48.120;11.534;2024-03-02T05:58:57;12.47;;;11.17;;
84997;SDS011;75314;48.120;11.534;2024-03-02T06:01:22;13.63;;;11.37;;
84997;SDS011;75314;48.120;11.534;2024-03-02T06:03:47;13.00;;;11.43;;
84997;SDS011;75314;48.120;11.534;2024-03-02T06:06:12;15.87;;;12.70;;
84997;SDS011;75314;48.120;11.534;2024-03-02T06:08:38;15.40;;;12.43;;
84997;SDS011;75314;48.120;11.534;2024-03-02T06:11:03;13.67;;;11.57;;
84997;SDS011;75314;48.120;11.534;2024-03-02T06:13:28;15.03;;;12.40;;
84997;SDS011;75314;48.120;11.534;2024-03-02T06:15:53;15.00;;;12.47;;
84997;SDS011;75314;48.120;11.534;2024-03-02T06:18:18;15.77;;;12.60;;
84997;SDS011;75314;48.120;11.534;2024-03-02T06:20:44;16.37;;;14.37;;
84997;SDS011;75314;48.120;11.534;2024-03-02T06:23:09;16.00;;;13.13;;
84997;SDS011;75314;48.120;11.534;2024-03-02T06:25:34;15.07;;;13.33;;
84997;SDS011;75314;48.120;11.534;2024-03-02T06:27:59;17.53;;;13.93;;
84997;SDS011;75314;48.120;11.534;2024-03-02T06:30:24;17.63;;;13.67;;
84997;SDS011;75314;48.120;11.534;2024-03-02T06:32:50;14.93;;;12.97;;
84997;SDS011;75314;48.120;11.534;2024-03-02T06:35:15;16.73;;;13.10;;
84997;SDS011;75314;48.120;11.534;2024-03-02T06:37:40;16.23;;;12.23;;
84997;SDS011;75314;48.120;11.534;2024-03-02T06:40:06;15.83;;;12.33;;
84997;SDS011;75314;48.120;11.534;2024-03-02T06:42:32;16.20;;;13.37;;
84997;SDS011;75314;48.120;11.534;2024-03-02T06:44:57;14.00;;;12.07;;
84997;SDS011;75314;48.120;11.534;2024-03-02T06:47:22;15.53;;;13.00;;
84997;SDS011;75314;48.120;11.534;2024-03-02T06:49:47;15.57;;;13.27;;
84997;SDS011;75314;48.120;11.534;2024-03-02T06:52:12;14.17;;;12.30;;
84997;SDS011;75314;48.120;11.534;2024-03-02T06:54:37;16.07;;;12.80;;
84997;SDS011;75314;48.120;11.534;2024-03-02T06:57:03;15.67;;;13.07;;
84997;SDS011;75314;48.120;11.534;2024-03-02T06:59:28;16.93;;;13.87;;
84997;SDS011;75314;48.120;11.534;2024-03-02T07:01:53;17.00;;;13.57;;
84997;SDS011;75314;48.120;11.534;2024-03-02T07:04:18;15.23;;;12.73;;
84997;SDS011;75314;48.120;11.534;2024-03-02T07:06:44;15.77;;;13.40;;
84997;SDS011;75314;48.120;11.534;2024-03-02T07:09:09;18.17;;;14.60;;
84997;SDS011;75314;48.120;11.534;2024-03-02T07:11:34;16.57;;;14.23;;
84997;SDS011;75314;48.120;11.534;2024-03-02T07:13:59;15.20;;;12.63;;
84997;SDS011;75314;48.120;11.534;2024-03-02T07:16:24;16.37;;;13.93;;
84997;SDS011;75314;48.120;11.534;2024-03-02T07:18:50;16.60;;;13.33;;
84997;SDS011;75314;48.120;11.534;2024-03-02T07:21:15;15.10;;;12.60;;
84997;SDS011;75314;48.120;11.534;2024-03-02T07:23:40;15.17;;;13.23;;
84997;SDS011;75314;48.120;11.534;2024-03-02T07:26:05;16.63;;;13.70;;
84997;SDS011;75314;48.120;11.534;2024-03-02T07:28:30;16.30;;;13.17;;
84997;SDS011;75314;48.120;11.534;2024-03-02T07:31:03;15.57;;;12.77;;
84997;SDS011;75314;48.120;11.534;2024-03-02T07:33:29;14.87;;;11.73;;
84997;SDS011;75314;48.120;11.534;2024-03-02T07:35:54;16.17;;;13.33;;
84997;SDS011;75314;48.120;11.534;2024-03-02T07:38:20;17.33;;;13.87;;
84997;SDS011;75314;48.120;11.534;2024-03-02T07:40:45;14.20;;;12.67;;
84997;SDS011;75314;48.120;11.534;2024-03-02T07:43:10;14.17;;;11.40;;
84997;SDS011;75314;48.120;11.534;2024-03-02T07:45:35;16.60;;;13.73;;
84997;SDS011;75314;48.120;11.534;2024-03-02T07:48:01;16.27;;;12.90;;
84997;SDS011;75314;48.120;11.534;2024-03-02T07:50:26;15.80;;;13.17;;
84997;SDS011;75314;48.120;11.534;2024-03-02T07:52:51;17.33;;;13.87;;
84997;SDS011;75314;48.120;11.534;2024-03-02T07:55:16;19.40;;;14.40;;
84997;SDS011;75314;48.120;11.534;2024-03-02T07:57:42;16.20;;;13.40;;
84997;SDS011;75314;48.120;11.534;2024-03-02T08:00:07;16.73;;;13.67;;
84997;SDS011;75314;48.120;11.534;2024-03-02T08:02:33;17.20;;;13.70;;
84997;SDS011;75314;48.120;11.534;2024-03-02T08:04:58;19.83;;;16.27;;
84997;SDS011;75314;48.120;11.534;2024-03-02T08:07:23;16.83;;;13.73;;
84997;SDS011;75314;48.120;11.534;2024-03-02T08:09:48;15.90;;;12.90;;
84997;SDS011;75314;48.120;11.534;2024-03-02T08:12:13;16.23;;;13.20;;
84997;SDS011;75314;48.120;11.534;2024-03-02T08:14:39;17.77;;;12.77;;
84997;SDS011;75314;48.120;11.534;2024-03-02T08:17:04;14.43;;;11.60;;
84997;SDS011;75314;48.120;11.534;2024-03-02T08:19:29;14.73;;;11.87;;
84997;SDS011;75314;48.120;11.534;2024-03-02T08:21:54;14.33;;;11.40;;
84997;SDS011;75314;48.120;11.534;2024-03-02T08:24:19;14.37;;;12.03;;
84997;SDS011;75314;48.120;11.534;2024-03-02T08:26:45;14.87;;;12.30;;
84997;SDS011;75314;48.120;11.534;2024-03-02T08:29:10;13.43;;;10.73;;
84997;SDS011;75314;48.120;11.534;2024-03-02T08:31:35;14.23;;;10.47;;
84997;SDS011;75314;48.120;11.534;2024-03-02T08:34:00;15.60;;;10.67;;
84997;SDS011;75314;48.120;11.534;2024-03-02T08:36:25;13.57;;;10.60;;
84997;SDS011;75314;48.120;11.534;2024-03-02T08:38:51;13.43;;;11.20;;
84997;SDS011;75314;48.120;11.534;2024-03-02T08:41:16;14.27;;;11.07;;
84997;SDS011;75314;48.120;11.534;2024-03-02T08:43:41;13.90;;;10.33;;
84997;SDS011;75314;48.120;11.534;2024-03-02T08:46:07;12.93;;;10.63;;
84997;SDS011;75314;48.120;11.534;2024-03-02T08:48:32;11.90;;;9.63;;
84997;SDS011;75314;48.120;11.534;2024-03-02T08:50:57;12.33;;;10.37;;
84997;SDS011;75314;48.120;11.534;2024-03-02T08:53:22;12.53;;;10.67;;
84997;SDS011;75314;48.120;11.534;2024-03-02T08:55:48;12.83;;;11.37;;
84997;SDS011;75314;48.120;11.534;2024-03-02T08:58:13;14.67;;;11.93;;
84997;SDS011;75314;48.120;11.534;2024-03-02T09:00:38;14.23;;;12.10;;
84997;SDS011;75314;48.120;11.534;2024-03-02T09:03:04;14.40;;;11.00;;
84997;SDS011;75314;48.120;11.534;2024-03-02T09:05:29;18.00;;;11.57;;
84997;SDS011;75314;48.120;11.534;2024-03-02T09:07:54;13.83;;;11.63;;
84997;SDS011;75314;48.120;11.534;2024-03-02T09:10:20;13.03;;;10.53;;
84997;SDS011;75314;48.120;11.534;2024-03-02T09:12:45;11.77;;;9.87;;
84997;SDS011;75314;48.120;11.534;2024-03-02T09:15:10;12.43;;;10.17;;
84997;SDS011;75314;48.120;11.534;2024-03-02T09:17:35;13.60;;;10.03;;
84997;SDS011;75314;48.120;11.534;2024-03-02T09:20:00;12.70;;;9.93;;
84997;SDS011;75314;48.120;11.534;2024-03-02T09:22:26;16.40;;;11.47;;
84997;SDS011;75314;48.120;11.534;2024-03-02T09:24:51;25.90;;;18.83;;
84997;SDS011;75314;48.120;11.534;2024-03-02T09:27:16;32.53;;;25.37;;
84997;SDS011;75314;48.120;11.534;2024-03-02T09:29:41;29.60;;;24.60;;
84997;SDS011;75314;48.120;11.534;2024-03-02T09:32:06;17.93;;;14.27;;
84997;SDS011;75314;48.120;11.534;2024-03-02T09:34:33;16.30;;;12.70;;
84997;SDS011;75314;48.120;11.534;2024-03-02T09:36:58;14.67;;;11.97;;
84997;SDS011;75314;48.120;11.534;2024-03-02T09:39:23;14.23;;;11.80;;
84997;SDS011;75314;48.120;11.534;2024-03-02T09:41:49;20.60;;;12.77;;
84997;SDS011;75314;48.120;11.534;2024-03-02T09:44:14;14.73;;;11.87;;
84997;SDS011;75314;48.120;11.534;2024-03-02T09:46:39;12.93;;;11.43;;
84997;SDS011;75314;48.120;11.534;2024-03-02T09:49:05;15.10;;;12.77;;
84997;SDS011;75314;48.120;11.534;2024-03-02T09:51:31;17.33;;;14.60;;
84997;SDS011;75314;48.120;11.534;2024-03-02T09:53:56;15.93;;;12.33;;
84997;SDS011;75314;48.120;11.534;2024-03-02T09:56:21;13.93;;;11.87;;
84997;SDS011;75314;48.120;11.534;2024-03-02T09:58:47;11.67;;;10.13;;
84997;SDS011;75314;48.120;11.534;2024-03-02T10:01:12;11.40;;;9.53;;
84997;SDS011;75314;48.120;11.534;2024-03-02T10:03:37;11.60;;;9.63;;
84997;SDS011;75314;48.120;11.534;2024-03-02T10:08:47;12.10;;;9.07;;
84997;SDS011;75314;48.120;11.534;2024-03-02T10:11:23;12.07;;;9.27;;
84997;SDS011;75314;48.120;11.534;2024-03-02T10:13:50;10.40;;;8.23;;
84997;SDS011;75314;48.120;11.534;2024-03-02T10:16:16;9.97;;;8.30;;
84997;SDS011;75314;48.120;11.534;2024-03-02T10:18:42;10.03;;;7.40;;
84997;SDS011;75314;48.120;11.534;2024-03-02T10:21:13;8.70;;;7.53;;
84997;SDS011;75314;48.120;11.534;2024-03-02T10:23:38;8.40;;;7.20;;
84997;SDS011;75314;48.120;11.534;2024-03-02T10:26:08;9.23;;;7.47;;
84997;SDS011;75314;48.120;11.534;2024-03-02T10:28:45;9.23;;;7.50;;
84997;SDS011;75314;48.120;11.534;2024-03-02T10:31:11;8.10;;;6.87;;
84997;SDS011;75314;48.120;11.534;2024-03-02T10:33:36;7.53;;;6.40;;
84997;SDS011;75314;48.120;11.534;2024-03-02T10:36:02;6.73;;;5.70;;
84997;SDS011;75314;48.120;11.534;2024-03-02T10:38:27;7.23;;;5.97;;
84997;SDS011;75314;48.120;11.534;2024-03-02T10:40:53;6.57;;;5.40;;
84997;SDS011;75314;48.120;11.534;2024-03-02T10:43:18;7.07;;;5.90;;
84997;SDS011;75314;48.120;11.534;2024-03-02T10:45:44;7.17;;;6.20;;
84997;SDS011;75314;48.120;11.534;2024-03-02T10:48:10;8.93;;;6.83;;
84997;SDS011;75314;48.120;11.534;2024-03-02T10:50:36;7.23;;;6.13;;
84997;SDS011;75314;48.120;11.534;2024-03-02T10:53:01;7.57;;;6.27;;
84997;SDS011;75314;48.120;11.534;2024-03-02T10:55:26;6.90;;;5.13;;
84997;SDS011;75314;48.120;11.534;2024-03-02T10:57:52;8.87;;;6.47;;
84997;SDS011;75314;48.120;11.534;2024-03-02T11:00:18;8.00;;;5.83;;
84997;SDS011;75314;48.120;11.534;2024-03-02T11:02:50;9.07;;;6.87;;
84997;SDS011;75314;48.120;11.534;2024-03-02T11:05:17;7.50;;;5.97;;
84997;SDS011;75314;48.120;11.534;2024-03-02T11:07:49;7.93;;;5.47;;
84997;SDS011;75314;48.120;11.534;2024-03-02T11:10:14;9.13;;;6.97;;
84997;SDS011;75314;48.120;11.534;2024-03-02T11:12:43;8.70;;;6.50;;
84997;SDS011;75314;48.120;11.534;2024-03-02T11:15:15;12.00;;;7.60;;
84997;SDS011;75314;48.120;11.534;2024-03-02T11:17:42;11.37;;;7.83;;
84997;SDS011;75314;48.120;11.534;2024-03-02T11:20:08;18.73;;;10.83;;
84997;SDS011;75314;48.120;11.534;2024-03-02T11:22:35;17.13;;;10.47;;
84997;SDS011;75314;48.120;11.534;2024-03-02T11:25:01;16.90;;;11.53;;
84997;SDS011;75314;48.120;11.534;2024-03-02T11:28:08;17.13;;;11.77;;
84997;SDS011;75314;48.120;11.534;2024-03-02T11:33:01;14.43;;;11.20;;
84997;SDS011;75314;48.120;11.534;2024-03-02T11:35:27;12.97;;;10.00;;
84997;SDS011;75314;48.120;11.534;2024-03-02T11:37:52;12.97;;;10.13;;
84997;SDS011;75314;48.120;11.534;2024-03-02T11:40:27;18.60;;;11.00;;
84997;SDS011;75314;48.120;11.534;2024-03-02T11:42:53;14.10;;;11.10;;
84997;SDS011;75314;48.120;11.534;2024-03-02T11:45:25;16.30;;;11.73;;
84997;SDS011;75314;48.120;11.534;2024-03-02T11:47:52;16.23;;;12.10;;
84997;SDS011;75314;48.120;11.534;2024-03-02T11:53:00;16.23;;;10.93;;
84997;SDS011;75314;48.120;11.534;2024-03-02T11:55:25;16.33;;;11.77;;
84997;SDS011;75314;48.120;11.534;2024-03-02T11:57:54;14.17;;;10.70;;
84997;SDS011;75314;48.120;11.534;2024-03-02T12:00:20;13.77;;;10.23;;
84997;SDS011;75314;48.120;11.534;2024-03-02T12:02:46;14.87;;;10.03;;
84997;SDS011;75314;48.120;11.534;2024-03-02T12:05:13;12.50;;;9.10;;
84997;SDS011;75314;48.120;11.534;2024-03-02T12:07:38;11.67;;;9.07;;
84997;SDS011;75314;48.120;11.534;2024-03-02T12:10:03;11.23;;;7.60;;
84997;SDS011;75314;48.120;11.534;2024-03-02T12:12:28;10.77;;;7.90;;
84997;SDS011;75314;48.120;11.534;2024-03-02T12:14:54;8.77;;;7.10;;
84997;SDS011;75314;48.120;11.534;2024-03-02T12:17:19;10.00;;;7.90;;
84997;SDS011;75314;48.120;11.534;2024-03-02T12:19:44;10.43;;;7.60;;
84997;SDS011;75314;48.120;11.534;2024-03-02T12:22:09;11.83;;;7.73;;
84997;SDS011;75314;48.120;11.534;2024-03-02T12:24:35;7.73;;;6.50;;
84997;SDS011;75314;48.120;11.534;2024-03-02T12:27:00;11.73;;;8.97;;
84997;SDS011;75314;48.120;11.534;2024-03-02T12:29:25;10.87;;;8.27;;
84997;SDS011;75314;48.120;11.534;2024-03-02T12:31:51;13.77;;;9.23;;
84997;SDS011;75314;48.120;11.534;2024-03-02T12:34:17;10.73;;;8.50;;
84997;SDS011;75314;48.120;11.534;2024-03-02T12:36:43;12.80;;;9.67;;
84997;SDS011;75314;48.120;11.534;2024-03-02T12:39:08;13.10;;;9.53;;
84997;SDS011;75314;48.120;11.534;2024-03-02T12:41:35;13.20;;;9.60;;
84997;SDS011;75314;48.120;11.534;2024-03-02T12:44:01;15.53;;;10.73;;
84997;SDS011;75314;48.120;11.534;2024-03-02T12:46:26;14.43;;;11.27;;
84997;SDS011;75314;48.120;11.534;2024-03-02T12:48:52;16.03;;;11.60;;
84997;SDS011;75314;48.120;11.534;2024-03-02T12:51:17;13.70;;;10.73;;
84997;SDS011;75314;48.120;11.534;2024-03-02T12:53:42;14.40;;;10.30;;
84997;SDS011;75314;48.120;11.534;2024-03-02T12:56:07;15.57;;;10.57;;
84997;SDS011;75314;48.120;11.534;2024-03-02T12:58:38;16.00;;;11.30;;
84997;SDS011;75314;48.120;11.534;2024-03-02T13:01:07;16.07;;;12.43;;
84997;SDS011;75314;48.120;11.534;2024-03-02T13:03:35;18.60;;;14.23;;
84997;SDS011;75314;48.120;11.534;2024-03-02T13:06:01;21.13;;;16.40;;
84997;SDS011;75314;48.120;11.534;2024-03-02T13:08:26;18.27;;;13.73;;
84997;SDS011;75314;48.120;11.534;2024-03-02T13:10:52;19.53;;;14.10;;
84997;SDS011;75314;48.120;11.534;2024-03-02T13:13:17;15.20;;;12.17;;
84997;SDS011;75314;48.120;11.534;2024-03-02T13:15:42;13.63;;;9.93;;
84997;SDS011;75314;48.120;11.534;2024-03-02T13:18:07;12.20;;;9.70;;
84997;SDS011;75314;48.120;11.534;2024-03-02T13:20:32;12.93;;;9.80;;
84997;SDS011;75314;48.120;11.534;2024-03-02T13:22:58;16.40;;;11.70;;
84997;SDS011;75314;48.120;11.534;2024-03-02T13:25:23;19.93;;;12.77;;
84997;SDS011;75314;48.120;11.534;2024-03-02T13:27:48;17.80;;;14.20;;
84997;SDS011;75314;48.120;11.534;2024-03-02T13:30:13;21.57;;;15.80;;
84997;SDS011;75314;48.120;11.534;2024-03-02T13:32:38;18.87;;;15.40;;
84997;SDS011;75314;48.120;11.534;2024-03-02T13:35:04;19.53;;;15.13;;
84997;SDS011;75314;48.120;11.534;2024-03-02T13:37:29;21.17;;;16.50;;
84997;SDS011;75314;48.120;11.534;2024-03-02T13:39:54;18.53;;;14.33;;
84997;SDS011;75314;48.120;11.534;2024-03-02T13:42:20;17.57;;;14.20;;
84997;SDS011;75314;48.120;11.534;2024-03-02T13:44:45;19.63;;;15.53;;
84997;SDS011;75314;48.120;11.534;2024-03-02T13:47:10;20.07;;;15.47;;
84997;SDS011;75314;48.120;11.534;2024-03-02T13:49:35;18.10;;;13.87;;
84997;SDS011;75314;48.120;11.534;2024-03-02T13:52:04;18.37;;;13.50;;
84997;SDS011;75314;48.120;11.534;2024-03-02T13:54:29;18.50;;;12.90;;
84997;SDS011;75314;48.120;11.534;2024-03-02T13:56:55;16.17;;;13.33;;
84997;SDS011;75314;48.120;11.534;2024-03-02T13:59:21;17.60;;;13.67;;
84997;SDS011;75314;48.120;11.534;2024-03-02T14:01:47;17.07;;;13.30;;
84997;SDS011;75314;48.120;11.534;2024-03-02T14:04:12;18.07;;;14.17;;
84997;SDS011;75314;48.120;11.534;2024-03-02T14:06:37;16.27;;;13.57;;
84997;SDS011;75314;48.120;11.534;2024-03-02T14:09:02;18.27;;;13.47;;
84997;SDS011;75314;48.120;11.534;2024-03-02T14:11:28;18.10;;;13.73;;
84997;SDS011;75314;48.120;11.534;2024-03-02T14:13:53;17.47;;;13.60;;
84997;SDS011;75314;48.120;11.534;2024-03-02T14:16:18;15.83;;;12.47;;
84997;SDS011;75314;48.120;11.534;2024-03-02T14:18:43;19.87;;;11.90;;